sensor_id;sensor_type;location;lat;lon;timestamp;pressure;altitude;pressure_sealevel;temperature;humidity
46347;BME280;32057;47.830;19.046;2023-05-23T00:00:08;99951.03;;;13.31;100.00
46347;BME280;32057;47.830;19.046;2023-05-23T00:02:38;99950.19;;;13.43;100.00
46347;BME280;32057;47.830;19.046;2023-05-23T00:05:04;99937.16;;;13.52;100.00
46347;BME280;32057;47.830;19.046;2023-05-23T00:07:29;99945.84;;;13.53;100.00
46347;BME280;32057;47.830;19.046;2023-05-23T00:09:56;99944.13;;;13.55;100.00
46347;BME280;32057;47.830;19.046;2023-05-23T00:12:22;99940.63;;;13.53;100.00
46347;BME280;32057;47.830;19.046;2023-05-23T00:14:47;99948.44;;;13.39;100.00
46347;BME280;32057;47.830;19.046;2023-05-23T00:17:13;99946.63;;;13.23;100.00
46347;BME280;32057;47.830;19.046;2023-05-23T00:19:41;99934.38;;;13.15;100.00
46347;BME280;32057;47.830;19.046;2023-05-23T00:22:10;99938.72;;;13.09;100.00
46347;BME280;32057;47.830;19.046;2023-05-23T00:24:36;99936.97;;;13.05;100.00
46347;BME280;32057;47.830;19.046;2023-05-23T00:27:01;99937.88;;;13.18;100.00
46347;BME280;32057;47.830;19.046;2023-05-23T00:29:27;99926.63;;;13.29;100.00
46347;BME280;32057;47.830;19.046;2023-05-23T00:31:52;99936.25;;;13.37;100.00
46347;BME280;32057;47.830;19.046;2023-05-23T00:34:17;99935.34;;;13.38;100.00
46347;BME280;32057;47.830;19.046;2023-05-23T00:36:43;99933.56;;;13.27;100.00
46347;BME280;32057;47.830;19.046;2023-05-23T00:39:12;99931.81;;;13.20;100.00
46347;BME280;32057;47.830;19.046;2023-05-23T00:41:47;99935.28;;;13.19;100.00
46347;BME280;32057;47.830;19.046;2023-05-23T00:44:13;99933.56;;;13.24;100.00
46347;BME280;32057;47.830;19.046;2023-05-23T00:46:39;99928.38;;;13.33;100.00
46347;BME280;32057;47.830;19.046;2023-05-23T00:49:06;99928.31;;;13.18;100.00
46347;BME280;32057;47.830;19.046;2023-05-23T00:51:32;99930.03;;;13.14;100.00
46347;BME280;32057;47.830;19.046;2023-05-23T00:53:59;99930.84;;;13.01;100.00
46347;BME280;32057;47.830;19.046;2023-05-23T00:56:25;99934.31;;;12.95;100.00
46347;BME280;32057;47.830;19.046;2023-05-23T00:58:53;99932.59;;;12.96;100.00
46347;BME280;32057;47.830;19.046;2023-05-23T01:01:18;99934.34;;;13.02;100.00
46347;BME280;32057;47.830;19.046;2023-05-23T01:03:44;99940.44;;;13.10;100.00
46347;BME280;32057;47.830;19.046;2023-05-23T01:06:12;99947.41;;;13.05;100.00
46347;BME280;32057;47.830;19.046;2023-05-23T01:08:38;99951.69;;;12.92;100.00
46347;BME280;32057;47.830;19.046;2023-05-23T01:11:16;99948.16;;;12.76;100.00
46347;BME280;32057;47.830;19.046;2023-05-23T01:13:57;99955.03;;;12.60;100.00
46347;BME280;32057;47.830;19.046;2023-05-23T01:16:40;99954.16;;;12.66;100.00
46347;BME280;32057;47.830;19.046;2023-05-23T01:22:22;99948.94;;;12.66;100.00
46347;BME280;32057;47.830;19.046;2023-05-23T01:27:54;99945.44;;;12.58;100.00
46347;BME280;32057;47.830;19.046;2023-05-23T01:30:22;99945.41;;;12.56;100.00
46347;BME280;32057;47.830;19.046;2023-05-23T01:32:52;99943.66;;;12.53;100.00
46347;BME280;32057;47.830;19.046;2023-05-23T01:35:23;99941.91;;;12.51;100.00
46347;BME280;32057;47.830;19.046;2023-05-23T01:37:48;99935.00;;;12.54;100.00
46347;BME280;32057;47.830;19.046;2023-05-23T01:40:14;99940.22;;;12.54;100.00
46347;BME280;32057;47.830;19.046;2023-05-23T01:42:39;99936.75;;;12.59;100.00
46347;BME280;32057;47.830;19.046;2023-05-23T01:45:06;99936.78;;;12.65;100.00
46347;BME280;32057;47.830;19.046;2023-05-23T01:47:32;99932.44;;;12.67;100.00
46347;BME280;32057;47.830;19.046;2023-05-23T01:49:58;99935.06;;;12.71;100.00
46347;BME280;32057;47.830;19.046;2023-05-23T01:52:24;99936.00;;;12.81;100.00
46347;BME280;32057;47.830;19.046;2023-05-23T01:54:50;99930.75;;;12.77;100.00
46347;BME280;32057;47.830;19.046;2023-05-23T01:57:18;99924.66;;;12.78;100.00
46347;BME280;32057;47.830;19.046;2023-05-23T01:59:44;99922.94;;;12.81;100.00
46347;BME280;32057;47.830;19.046;2023-05-23T02:02:10;99919.41;;;12.73;100.00
46347;BME280;32057;47.830;19.046;2023-05-23T02:04:35;99916.78;;;12.70;100.00
46347;BME280;32057;47.830;19.046;2023-05-23T02:07:01;99923.72;;;12.60;100.00
46347;BME280;32057;47.830;19.046;2023-05-23T02:09:26;99924.50;;;12.51;100.00
46347;BME280;32057;47.830;19.046;2023-05-23T02:11:51;99920.16;;;12.49;100.00
46347;BME280;32057;47.830;19.046;2023-05-23T02:14:17;99920.91;;;12.34;100.00
46347;BME280;32057;47.830;19.046;2023-05-23T02:16:42;99915.63;;;12.19;100.00
46347;BME280;32057;47.830;19.046;2023-05-23T02:19:09;99919.91;;;12.12;100.00
46347;BME280;32057;47.830;19.046;2023-05-23T02:21:34;99913.91;;;12.24;100.00
46347;BME280;32057;47.830;19.046;2023-05-23T02:24:00;99920.06;;;12.35;100.00
46347;BME280;32057;47.830;19.046;2023-05-23T02:26:25;99922.72;;;12.41;100.00
46347;BME280;32057;47.830;19.046;2023-05-23T02:28:51;99919.19;;;12.36;100.00
46347;BME280;32057;47.830;19.046;2023-05-23T02:31:17;99911.44;;;12.42;100.00
46347;BME280;32057;47.830;19.046;2023-05-23T02:33:43;99918.41;;;12.46;100.00
46347;BME280;32057;47.830;19.046;2023-05-23T02:36:08;99910.53;;;12.37;100.00
46347;BME280;32057;47.830;19.046;2023-05-23T02:38:33;99914.78;;;12.26;100.00
46347;BME280;32057;47.830;19.046;2023-05-23T02:40:59;99918.16;;;12.09;100.00
46347;BME280;32057;47.830;19.046;2023-05-23T02:43:24;99919.00;;;12.05;100.00
46347;BME280;32057;47.830;19.046;2023-05-23T02:45:50;99920.69;;;12.00;100.00
46347;BME280;32057;47.830;19.046;2023-05-23T02:48:16;99918.94;;;11.99;100.00
46347;BME280;32057;47.830;19.046;2023-05-23T02:50:41;99910.31;;;12.06;100.00
46347;BME280;32057;47.830;19.046;2023-05-23T02:53:07;99916.44;;;12.11;100.00
46347;BME280;32057;47.830;19.046;2023-05-23T02:55:32;99912.16;;;12.23;100.00
46347;BME280;32057;47.830;19.046;2023-05-23T02:57:57;99907.84;;;12.25;100.00
46347;BME280;32057;47.830;19.046;2023-05-23T03:00:23;99911.28;;;12.19;100.00
46347;BME280;32057;47.830;19.046;2023-05-23T03:02:49;99906.00;;;12.13;100.00
46347;BME280;32057;47.830;19.046;2023-05-23T03:05:15;99905.13;;;12.14;100.00
46347;BME280;32057;47.830;19.046;2023-05-23T03:07:40;99903.47;;;12.24;100.00
46347;BME280;32057;47.830;19.046;2023-05-23T03:10:06;99904.34;;;12.26;100.00
46347;BME280;32057;47.830;19.046;2023-05-23T03:12:32;99901.78;;;12.32;100.00
46347;BME280;32057;47.830;19.046;2023-05-23T03:14:57;99906.16;;;12.33;100.00
46347;BME280;32057;47.830;19.046;2023-05-23T03:17:24;99904.34;;;12.26;100.00
46347;BME280;32057;47.830;19.046;2023-05-23T03:19:50;99901.69;;;12.17;100.00
46347;BME280;32057;47.830;19.046;2023-05-23T03:22:15;99908.66;;;12.19;100.00
46347;BME280;32057;47.830;19.046;2023-05-23T03:24:41;99898.25;;;12.24;100.00
46347;BME280;32057;47.830;19.046;2023-05-23T03:27:07;99908.72;;;12.27;100.00
46347;BME280;32057;47.830;19.046;2023-05-23T03:29:32;99913.09;;;12.34;100.00
46347;BME280;32057;47.830;19.046;2023-05-23T03:31:58;99915.78;;;12.40;100.00
46347;BME280;32057;47.830;19.046;2023-05-23T03:34:23;99915.78;;;12.43;100.00
46347;BME280;32057;47.830;19.046;2023-05-23T03:36:50;99914.94;;;12.47;100.00
46347;BME280;32057;47.830;19.046;2023-05-23T03:39:16;99917.56;;;12.50;100.00
46347;BME280;32057;47.830;19.046;2023-05-23T03:41:41;99914.94;;;12.44;100.00
46347;BME280;32057;47.830;19.046;2023-05-23T03:44:07;99914.03;;;12.45;100.00
46347;BME280;32057;47.830;19.046;2023-05-23T03:46:32;99915.78;;;12.43;100.00
46347;BME280;32057;47.830;19.046;2023-05-23T03:48:57;99913.94;;;12.30;100.00
46347;BME280;32057;47.830;19.046;2023-05-23T03:51:23;99905.22;;;12.25;100.00
46347;BME280;32057;47.830;19.046;2023-05-23T03:53:48;99908.69;;;12.21;100.00
46347;BME280;32057;47.830;19.046;2023-05-23T03:56:14;99913.00;;;12.17;100.00
46347;BME280;32057;47.830;19.046;2023-05-23T03:58:39;99911.28;;;12.19;100.00
46347;BME280;32057;47.830;19.046;2023-05-23T04:01:05;99912.13;;;12.18;100.00
46347;BME280;32057;47.830;19.046;2023-05-23T04:03:31;99917.38;;;12.23;100.00
46347;BME280;32057;47.830;19.046;2023-05-23T04:05:58;99911.38;;;12.34;100.00
46347;BME280;32057;47.830;19.046;2023-05-23T04:08:25;99915.78;;;12.43;100.00
46347;BME280;32057;47.830;19.046;2023-05-23T04:10:50;99916.66;;;12.42;100.00
46347;BME280;32057;47.830;19.046;2023-05-23T04:13:16;99922.75;;;12.44;100.00
46347;BME280;32057;47.830;19.046;2023-05-23T04:15:41;99921.03;;;12.51;100.00
46347;BME280;32057;47.830;19.046;2023-05-23T04:18:07;99919.28;;;12.48;100.00
46347;BME280;32057;47.830;19.046;2023-05-23T04:20:33;99910.66;;;12.59;100.00
46347;BME280;32057;47.830;19.046;2023-05-23T04:22:59;99915.94;;;12.71;100.00
46347;BME280;32057;47.830;19.046;2023-05-23T04:25:25;99908.16;;;12.85;100.00
46347;BME280;32057;47.830;19.046;2023-05-23T04:27:51;99909.09;;;12.99;100.00
46347;BME280;32057;47.830;19.046;2023-05-23T04:30:18;99903.03;;;13.09;100.00
46347;BME280;32057;47.830;19.046;2023-05-23T04:32:44;99903.03;;;13.17;100.00
46347;BME280;32057;47.830;19.046;2023-05-23T04:35:10;99900.50;;;13.31;100.00
46347;BME280;32057;47.830;19.046;2023-05-23T04:37:36;99898.78;;;13.41;100.00
46347;BME280;32057;47.830;19.046;2023-05-23T04:40:02;99906.66;;;13.54;100.00
46347;BME280;32057;47.830;19.046;2023-05-23T04:42:28;99904.03;;;13.65;100.00
46347;BME280;32057;47.830;19.046;2023-05-23T04:44:54;99904.06;;;13.81;100.00
46347;BME280;32057;47.830;19.046;2023-05-23T04:47:22;99907.53;;;13.89;100.00
46347;BME280;32057;47.830;19.046;2023-05-23T04:49:49;99902.31;;;13.95;100.00
46347;BME280;32057;47.830;19.046;2023-05-23T04:52:15;99898.81;;;14.07;100.00
46347;BME280;32057;47.830;19.046;2023-05-23T04:54:43;99908.41;;;14.20;100.00
46347;BME280;32057;47.830;19.046;2023-05-23T04:57:10;99900.56;;;14.28;100.00
46347;BME280;32057;47.830;19.046;2023-05-23T04:59:37;99893.53;;;14.38;100.00
46347;BME280;32057;47.830;19.046;2023-05-23T05:02:02;99894.38;;;14.52;100.00
46347;BME280;32057;47.830;19.046;2023-05-23T05:04:28;99897.00;;;14.63;100.00
46347;BME280;32057;47.830;19.046;2023-05-23T05:06:53;99896.09;;;14.67;100.00
46347;BME280;32057;47.830;19.046;2023-05-23T05:09:18;99895.25;;;14.68;100.00
46347;BME280;32057;47.830;19.046;2023-05-23T05:11:46;99892.66;;;14.60;100.00
46347;BME280;32057;47.830;19.046;2023-05-23T05:14:11;99896.13;;;14.62;100.00
46347;BME280;32057;47.830;19.046;2023-05-23T05:16:36;99898.72;;;14.68;100.00
46347;BME280;32057;47.830;19.046;2023-05-23T05:19:02;99895.22;;;14.71;100.00
46347;BME280;32057;47.830;19.046;2023-05-23T05:21:27;99892.53;;;14.88;100.00
46347;BME280;32057;47.830;19.046;2023-05-23T05:23:53;99887.22;;;15.08;100.00
46347;BME280;32057;47.830;19.046;2023-05-23T05:26:18;99889.72;;;15.26;100.00
46347;BME280;32057;47.830;19.046;2023-05-23T05:28:44;99886.03;;;15.55;100.00
46347;BME280;32057;47.830;19.046;2023-05-23T05:31:09;99889.38;;;15.82;100.00
46347;BME280;32057;47.830;19.046;2023-05-23T05:33:39;99893.47;;;16.13;100.00
46347;BME280;32057;47.830;19.046;2023-05-23T05:36:06;99891.50;;;16.36;100.00
46347;BME280;32057;47.830;19.046;2023-05-23T05:38:32;99888.63;;;16.59;100.00
46347;BME280;32057;47.830;19.046;2023-05-23T05:40:57;99883.91;;;16.90;100.00
46347;BME280;32057;47.830;19.046;2023-05-23T05:43:24;99880.88;;;17.19;100.00
46347;BME280;32057;47.830;19.046;2023-05-23T05:45:49;99885.69;;;17.50;100.00
46347;BME280;32057;47.830;19.046;2023-05-23T05:48:15;99880.91;;;17.75;100.00
46347;BME280;32057;47.830;19.046;2023-05-23T05:50:40;99880.75;;;17.87;100.00
46347;BME280;32057;47.830;19.046;2023-05-23T05:53:09;99882.97;;;18.10;100.00
46347;BME280;32057;47.830;19.046;2023-05-23T05:55:35;99879.13;;;18.30;100.00
46347;BME280;32057;47.830;19.046;2023-05-23T05:58:00;99890.25;;;18.46;100.00
46347;BME280;32057;47.830;19.046;2023-05-23T06:00:25;99880.41;;;18.56;100.00
46347;BME280;32057;47.830;19.046;2023-05-23T06:02:51;99885.59;;;18.59;100.00
46347;BME280;32057;47.830;19.046;2023-05-23T06:05:19;99885.47;;;18.65;100.00
46347;BME280;32057;47.830;19.046;2023-05-23T06:07:47;99882.66;;;18.74;100.00
46347;BME280;32057;47.830;19.046;2023-05-23T06:10:12;99884.13;;;18.89;100.00
46347;BME280;32057;47.830;19.046;2023-05-23T06:12:38;99884.06;;;18.94;100.00
46347;BME280;32057;47.830;19.046;2023-05-23T06:15:05;99885.63;;;19.02;100.00
46347;BME280;32057;47.830;19.046;2023-05-23T06:17:31;99873.72;;;19.23;100.00
46347;BME280;32057;47.830;19.046;2023-05-23T06:19:56;99872.47;;;19.40;100.00
46347;BME280;32057;47.830;19.046;2023-05-23T06:22:21;99875.03;;;19.43;100.00
46347;BME280;32057;47.830;19.046;2023-05-23T06:24:47;99875.59;;;19.57;100.00
46347;BME280;32057;47.830;19.046;2023-05-23T06:27:12;99885.72;;;19.76;100.00
46347;BME280;32057;47.830;19.046;2023-05-23T06:29:38;99881.78;;;19.92;100.00
46347;BME280;32057;47.830;19.046;2023-05-23T06:32:04;99880.50;;;20.08;100.00
46347;BME280;32057;47.830;19.046;2023-05-23T06:34:29;99882.09;;;20.16;100.00
46347;BME280;32057;47.830;19.046;2023-05-23T06:36:55;99883.06;;;20.12;100.00
46347;BME280;32057;47.830;19.046;2023-05-23T06:39:20;99872.81;;;20.32;100.00
46347;BME280;32057;47.830;19.046;2023-05-23T06:41:46;99878.66;;;20.45;100.00
46347;BME280;32057;47.830;19.046;2023-05-23T06:44:12;99865.88;;;20.61;100.00
46347;BME280;32057;47.830;19.046;2023-05-23T06:46:37;99871.84;;;20.69;98.21
46347;BME280;32057;47.830;19.046;2023-05-23T06:49:03;99866.22;;;20.81;96.84
46347;BME280;32057;47.830;19.046;2023-05-23T06:51:28;99863.63;;;20.78;90.65
46347;BME280;32057;47.830;19.046;2023-05-23T06:53:54;99862.25;;;20.95;97.93
46347;BME280;32057;47.830;19.046;2023-05-23T06:56:21;99869.78;;;21.08;93.90
46347;BME280;32057;47.830;19.046;2023-05-23T06:58:47;99867.69;;;21.20;96.02
46347;BME280;32057;47.830;19.046;2023-05-23T07:01:12;99856.91;;;21.26;95.20
46347;BME280;32057;47.830;19.046;2023-05-23T07:03:38;99853.91;;;21.37;91.51
46347;BME280;32057;47.830;19.046;2023-05-23T07:06:06;99855.75;;;21.35;86.47
46347;BME280;32057;47.830;19.046;2023-05-23T07:08:31;99844.91;;;21.42;87.76
46347;BME280;32057;47.830;19.046;2023-05-23T07:10:57;99846.88;;;21.65;91.74
46347;BME280;32057;47.830;19.046;2023-05-23T07:13:22;99848.25;;;21.77;91.58
46347;BME280;32057;47.830;19.046;2023-05-23T07:15:47;99847.47;;;21.74;86.01
46347;BME280;32057;47.830;19.046;2023-05-23T07:18:13;99848.72;;;21.88;90.02
46347;BME280;32057;47.830;19.046;2023-05-23T07:20:38;99847.66;;;21.94;90.55
46347;BME280;32057;47.830;19.046;2023-05-23T07:23:04;99843.84;;;22.03;85.19
46347;BME280;32057;47.830;19.046;2023-05-23T07:25:29;99834.38;;;21.96;86.01
46347;BME280;32057;47.830;19.046;2023-05-23T07:27:55;99840.22;;;22.05;86.86
46347;BME280;32057;47.830;19.046;2023-05-23T07:30:20;99829.94;;;22.21;84.53
46347;BME280;32057;47.830;19.046;2023-05-23T07:32:47;99834.13;;;22.28;84.13
46347;BME280;32057;47.830;19.046;2023-05-23T07:35:14;99830.25;;;22.39;85.34
46347;BME280;32057;47.830;19.046;2023-05-23T07:37:39;99835.13;;;22.50;85.41
46347;BME280;32057;47.830;19.046;2023-05-23T07:40:06;99838.50;;;22.55;81.37
46347;BME280;32057;47.830;19.046;2023-05-23T07:42:33;99839.19;;;22.60;81.83
46347;BME280;32057;47.830;19.046;2023-05-23T07:44:58;99836.44;;;22.63;88.16
46347;BME280;32057;47.830;19.046;2023-05-23T07:47:24;99837.63;;;22.78;86.92
46347;BME280;32057;47.830;19.046;2023-05-23T07:49:49;99831.78;;;22.92;85.72
46347;BME280;32057;47.830;19.046;2023-05-23T07:52:16;99835.72;;;22.81;79.91
46347;BME280;32057;47.830;19.046;2023-05-23T07:54:41;99827.00;;;22.78;80.88
46347;BME280;32057;47.830;19.046;2023-05-23T07:57:08;99828.03;;;22.97;81.54
46347;BME280;32057;47.830;19.046;2023-05-23T07:59:33;99834.44;;;23.15;87.45
46347;BME280;32057;47.830;19.046;2023-05-23T08:01:59;99828.66;;;23.27;84.86
46347;BME280;32057;47.830;19.046;2023-05-23T08:04:24;99830.06;;;23.36;84.56
46347;BME280;32057;47.830;19.046;2023-05-23T08:06:50;99829.59;;;23.26;82.74
46347;BME280;32057;47.830;19.046;2023-05-23T08:09:17;99831.66;;;23.40;84.30
46347;BME280;32057;47.830;19.046;2023-05-23T08:11:43;99827.53;;;23.55;82.42
46347;BME280;32057;47.830;19.046;2023-05-23T08:14:08;99832.28;;;23.69;81.63
46347;BME280;32057;47.830;19.046;2023-05-23T08:16:34;99824.03;;;23.55;84.95
46347;BME280;32057;47.830;19.046;2023-05-23T08:19:00;99824.94;;;23.74;81.46
46347;BME280;32057;47.830;19.046;2023-05-23T08:21:25;99831.31;;;23.92;84.95
46347;BME280;32057;47.830;19.046;2023-05-23T08:23:50;99826.94;;;23.91;81.44
46347;BME280;32057;47.830;19.046;2023-05-23T08:26:16;99821.94;;;24.04;81.93
46347;BME280;32057;47.830;19.046;2023-05-23T08:28:41;99819.75;;;24.14;77.75
46347;BME280;32057;47.830;19.046;2023-05-23T08:31:07;99823.44;;;24.11;79.48
46347;BME280;32057;47.830;19.046;2023-05-23T08:33:32;99823.28;;;24.14;76.19
46347;BME280;32057;47.830;19.046;2023-05-23T08:35:57;99826.06;;;24.32;76.24
46347;BME280;32057;47.830;19.046;2023-05-23T08:38:23;99823.63;;;24.46;77.51
46347;BME280;32057;47.830;19.046;2023-05-23T08:40:50;99821.06;;;24.44;75.41
46347;BME280;32057;47.830;19.046;2023-05-23T08:43:18;99818.81;;;24.56;80.52
46347;BME280;32057;47.830;19.046;2023-05-23T08:45:44;99818.31;;;24.67;79.36
46347;BME280;32057;47.830;19.046;2023-05-23T08:48:12;99820.19;;;24.83;80.48
46347;BME280;32057;47.830;19.046;2023-05-23T08:50:41;99824.19;;;24.92;78.35
46347;BME280;32057;47.830;19.046;2023-05-23T08:53:08;99824.56;;;25.03;80.86
46347;BME280;32057;47.830;19.046;2023-05-23T08:55:36;99825.28;;;25.07;78.43
46347;BME280;32057;47.830;19.046;2023-05-23T08:58:02;99823.72;;;25.03;77.52
46347;BME280;32057;47.830;19.046;2023-05-23T09:00:28;99812.50;;;24.77;73.77
46347;BME280;32057;47.830;19.046;2023-05-23T09:02:54;99817.69;;;24.80;73.90
46347;BME280;32057;47.830;19.046;2023-05-23T09:05:20;99820.09;;;25.04;77.51
46347;BME280;32057;47.830;19.046;2023-05-23T09:07:46;99822.72;;;25.24;76.11
46347;BME280;32057;47.830;19.046;2023-05-23T09:10:19;99821.84;;;25.05;69.75
46347;BME280;32057;47.830;19.046;2023-05-23T09:12:44;99822.63;;;25.07;72.82
46347;BME280;32057;47.830;19.046;2023-05-23T09:15:11;99816.94;;;24.96;66.96
46347;BME280;32057;47.830;19.046;2023-05-23T09:17:36;99819.66;;;25.13;70.61
46347;BME280;32057;47.830;19.046;2023-05-23T09:20:03;99821.13;;;25.20;69.23
46347;BME280;32057;47.830;19.046;2023-05-23T09:22:29;99812.22;;;25.21;67.11
46347;BME280;32057;47.830;19.046;2023-05-23T09:24:55;99812.75;;;25.28;63.56
46347;BME280;32057;47.830;19.046;2023-05-23T09:27:21;99817.88;;;25.50;73.56
46347;BME280;32057;47.830;19.046;2023-05-23T09:29:48;99811.00;;;25.46;61.92
46347;BME280;32057;47.830;19.046;2023-05-23T09:32:16;99814.53;;;25.64;64.62
46347;BME280;32057;47.830;19.046;2023-05-23T09:34:54;99809.00;;;25.69;62.21
46347;BME280;32057;47.830;19.046;2023-05-23T09:37:21;99802.66;;;25.71;57.60
46347;BME280;32057;47.830;19.046;2023-05-23T09:39:49;99802.56;;;25.55;59.79
46347;BME280;32057;47.830;19.046;2023-05-23T09:42:19;99805.44;;;25.68;60.41
46347;BME280;32057;47.830;19.046;2023-05-23T09:44:46;99803.03;;;25.81;63.85
46347;BME280;32057;47.830;19.046;2023-05-23T09:47:11;99809.00;;;25.69;55.86
46347;BME280;32057;47.830;19.046;2023-05-23T09:49:40;99806.72;;;25.78;57.08
46347;BME280;32057;47.830;19.046;2023-05-23T09:52:05;99810.19;;;25.80;55.39
46347;BME280;32057;47.830;19.046;2023-05-23T09:54:31;99798.84;;;25.94;55.90
46347;BME280;32057;47.830;19.046;2023-05-23T09:56:58;99797.41;;;26.05;57.99
46347;BME280;32057;47.830;19.046;2023-05-23T09:59:27;99791.44;;;26.17;60.98
46347;BME280;32057;47.830;19.046;2023-05-23T10:01:55;99791.63;;;26.30;57.31
46347;BME280;32057;47.830;19.046;2023-05-23T10:04:21;99790.19;;;26.40;61.37
46347;BME280;32057;47.830;19.046;2023-05-23T10:06:51;99789.84;;;26.30;56.51
46347;BME280;32057;47.830;19.046;2023-05-23T10:09:19;99779.97;;;26.32;60.18
46347;BME280;32057;47.830;19.046;2023-05-23T10:12:20;99782.56;;;26.50;65.31
46347;BME280;32057;47.830;19.046;2023-05-23T10:14:46;99784.63;;;26.45;56.13
46347;BME280;32057;47.830;19.046;2023-05-23T10:17:35;99777.69;;;26.58;62.86
46347;BME280;32057;47.830;19.046;2023-05-23T10:20:07;99777.03;;;26.70;64.49
46347;BME280;32057;47.830;19.046;2023-05-23T10:22:35;99777.91;;;26.87;63.18
46347;BME280;32057;47.830;19.046;2023-05-23T10:25:02;99772.63;;;26.69;55.26
46347;BME280;32057;47.830;19.046;2023-05-23T10:27:30;99773.25;;;26.74;58.09
46347;BME280;32057;47.830;19.046;2023-05-23T10:29:58;99771.44;;;26.75;53.55
46347;BME280;32057;47.830;19.046;2023-05-23T10:32:25;99763.09;;;26.81;59.94
46347;BME280;32057;47.830;19.046;2023-05-23T10:35:06;99759.63;;;26.79;57.64
46347;BME280;32057;47.830;19.046;2023-05-23T10:37:39;99757.31;;;26.89;54.80
46347;BME280;32057;47.830;19.046;2023-05-23T10:40:36;99751.78;;;26.92;55.97
46347;BME280;32057;47.830;19.046;2023-05-23T10:43:15;99749.72;;;26.97;65.83
46347;BME280;32057;47.830;19.046;2023-05-23T10:45:42;99751.44;;;26.98;59.95
46347;BME280;32057;47.830;19.046;2023-05-23T10:51:12;99747.34;;;26.76;51.35
46347;BME280;32057;47.830;19.046;2023-05-23T10:53:43;99747.47;;;27.05;59.08
46347;BME280;32057;47.830;19.046;2023-05-23T10:56:17;99743.53;;;26.96;56.18
46347;BME280;32057;47.830;19.046;2023-05-23T10:58:44;99745.78;;;27.04;59.58
46347;BME280;32057;47.830;19.046;2023-05-23T11:01:14;99738.19;;;27.12;58.72
46347;BME280;32057;47.830;19.046;2023-05-23T11:06:40;99736.09;;;27.17;63.05
46347;BME280;32057;47.830;19.046;2023-05-23T11:09:18;99733.31;;;27.35;60.29
46347;BME280;32057;47.830;19.046;2023-05-23T11:12:01;99720.56;;;27.40;56.09
46347;BME280;32057;47.830;19.046;2023-05-23T11:14:31;99716.06;;;27.40;59.46
46347;BME280;32057;47.830;19.046;2023-05-23T11:19:37;99719.56;;;27.27;53.03
46347;BME280;32057;47.830;19.046;2023-05-23T11:22:03;99716.06;;;27.40;65.55
46347;BME280;32057;47.830;19.046;2023-05-23T11:27:31;99710.53;;;27.44;60.40
46347;BME280;32057;47.830;19.046;2023-05-23T11:29:59;99710.41;;;27.31;55.74
46347;BME280;32057;47.830;19.046;2023-05-23T11:32:27;99710.53;;;26.81;55.02
46347;BME280;32057;47.830;19.046;2023-05-23T11:34:54;99701.00;;;26.61;60.53
46347;BME280;32057;47.830;19.046;2023-05-23T11:37:19;99698.69;;;26.22;60.27
46347;BME280;32057;47.830;19.046;2023-05-23T11:39:45;99693.88;;;26.13;60.41
46347;BME280;32057;47.830;19.046;2023-05-23T11:42:11;99690.00;;;25.85;60.48
46347;BME280;32057;47.830;19.046;2023-05-23T11:44:36;99692.41;;;25.56;64.94
46347;BME280;32057;47.830;19.046;2023-05-23T11:47:05;99683.13;;;25.63;61.99
46347;BME280;32057;47.830;19.046;2023-05-23T11:49:34;99673.94;;;25.87;64.87
46347;BME280;32057;47.830;19.046;2023-05-23T11:52:01;99666.19;;;26.15;63.51
46347;BME280;32057;47.830;19.046;2023-05-23T11:54:28;99676.69;;;26.34;63.28
46347;BME280;32057;47.830;19.046;2023-05-23T11:56:54;99665.94;;;26.52;60.14
46347;BME280;32057;47.830;19.046;2023-05-23T11:59:21;99667.59;;;26.70;61.25
46347;BME280;32057;47.830;19.046;2023-05-23T12:01:47;99668.03;;;26.78;59.88
46347;BME280;32057;47.830;19.046;2023-05-23T12:04:12;99665.53;;;26.59;57.42
46347;BME280;32057;47.830;19.046;2023-05-23T12:06:41;99656.56;;;26.45;56.93
46347;BME280;32057;47.830;19.046;2023-05-23T12:09:09;99657.44;;;26.61;57.32
46347;BME280;32057;47.830;19.046;2023-05-23T12:11:36;99642.59;;;26.55;57.81
46347;BME280;32057;47.830;19.046;2023-05-23T12:14:01;99649.69;;;26.40;57.96
46347;BME280;32057;47.830;19.046;2023-05-23T12:16:31;99642.63;;;26.39;59.63
46347;BME280;32057;47.830;19.046;2023-05-23T12:18:57;99639.44;;;26.49;63.70
46347;BME280;32057;47.830;19.046;2023-05-23T12:21:25;99628.00;;;26.47;58.65
46347;BME280;32057;47.830;19.046;2023-05-23T12:23:51;99632.47;;;26.62;61.33
46347;BME280;32057;47.830;19.046;2023-05-23T12:26:16;99625.91;;;26.83;60.17
46347;BME280;32057;47.830;19.046;2023-05-23T12:28:43;99631.06;;;26.87;55.62
46347;BME280;32057;47.830;19.046;2023-05-23T12:31:10;99624.50;;;26.92;57.00
46347;BME280;32057;47.830;19.046;2023-05-23T12:33:43;99617.94;;;26.98;55.80
46347;BME280;32057;47.830;19.046;2023-05-23T12:36:10;99618.84;;;26.82;56.68
46347;BME280;32057;47.830;19.046;2023-05-23T12:38:36;99613.72;;;26.94;57.88
46347;BME280;32057;47.830;19.046;2023-05-23T12:43:39;99606.91;;;27.04;62.51
46347;BME280;32057;47.830;19.046;2023-05-23T12:46:08;99598.53;;;27.10;57.98
46347;BME280;32057;47.830;19.046;2023-05-23T12:48:34;99592.69;;;27.18;57.24
46347;BME280;32057;47.830;19.046;2023-05-23T12:50:59;99588.94;;;27.22;58.67
46347;BME280;32057;47.830;19.046;2023-05-23T12:53:27;99583.50;;;27.38;61.04
46347;BME280;32057;47.830;19.046;2023-05-23T12:55:52;99583.34;;;27.41;54.49
46347;BME280;32057;47.830;19.046;2023-05-23T12:58:18;99577.22;;;27.25;56.25
46347;BME280;32057;47.830;19.046;2023-05-23T13:00:43;99585.16;;;27.40;57.97
46347;BME280;32057;47.830;19.046;2023-05-23T13:03:09;99590.72;;;27.21;60.38